Terminal Aerodrome Forecast
Issued by NWS Cleveland, OH

Home | Current Version | Previous Version | Graphics & Text | Print | Product List | Glossary On
Versions: 1 2 3 4 5 6 7 8 9 10 11 12 13 14 15 16 17 18 19 20 21 22 23
519
FTUS41 KCLE 291002 AAB
TAFMFD
TAF AMD
KMFD 291002Z 2910/3006 VRB04KT 4SM -TSRA OVC009CB
     FM291200 04005KT 4SM -SHRA OVC007
     FM292000 03008KT P6SM OVC007
     FM300200 06008KT P6SM BKN007=

USA.gov is the U.S. government's official web portal to all federal, state and local government web resources and services.